createdAt,value
2023-08-02T00:01:11.794Z,3.72
2023-08-02T00:03:38.876Z,3.73
2023-08-02T00:06:05.922Z,3.95
2023-08-02T00:08:33.703Z,3.60
2023-08-02T00:11:00.615Z,3.45
2023-08-02T00:13:27.545Z,3.45
2023-08-02T00:15:54.573Z,3.60
2023-08-02T00:18:21.609Z,3.00
2023-08-02T00:20:49.652Z,3.30
2023-08-02T00:23:16.649Z,3.42
2023-08-02T00:25:43.623Z,3.40
2023-08-02T00:28:10.620Z,3.60
2023-08-02T00:30:48.315Z,3.70
2023-08-02T00:33:16.031Z,3.70
2023-08-02T00:35:46.942Z,3.83
2023-08-02T00:38:15.038Z,3.50
2023-08-02T00:40:42.565Z,3.67
2023-08-02T00:43:09.629Z,3.85
2023-08-02T00:45:37.693Z,3.78
2023-08-02T00:48:05.247Z,4.38
2023-08-02T00:50:34.537Z,3.42
2023-08-02T00:53:01.614Z,4.20
2023-08-02T00:55:28.978Z,3.83
2023-08-02T00:57:55.956Z,4.20
2023-08-02T01:00:23.022Z,4.43
2023-08-02T01:02:50.839Z,4.57
2023-08-02T01:05:21.745Z,4.70
2023-08-02T01:07:59.246Z,4.88
2023-08-02T01:10:33.044Z,4.55
2023-08-02T01:13:04.036Z,4.13
2023-08-02T01:15:32.118Z,3.95
2023-08-02T01:18:00.017Z,4.50
2023-08-02T01:20:27.184Z,4.90
2023-08-02T01:22:54.247Z,4.93
2023-08-02T01:25:21.711Z,4.78
2023-08-02T01:28:01.468Z,4.80
2023-08-02T01:30:37.132Z,4.40
2023-08-02T01:33:05.621Z,4.65
2023-08-02T01:35:33.742Z,4.72
2023-08-02T01:38:01.129Z,3.95
2023-08-02T01:40:28.049Z,5.30
2023-08-02T01:42:54.938Z,4.50
2023-08-02T01:45:22.710Z,4.70
2023-08-02T01:47:50.182Z,4.40
2023-08-02T01:50:17.127Z,4.55
2023-08-02T01:52:44.012Z,4.40
2023-08-02T01:55:11.037Z,4.60
2023-08-02T01:57:38.002Z,4.50
2023-08-02T02:00:06.112Z,4.40
2023-08-02T02:02:39.625Z,4.07
2023-08-02T02:05:07.376Z,4.30
2023-08-02T02:07:34.318Z,3.73
2023-08-02T02:10:01.765Z,4.20
2023-08-02T02:12:28.684Z,4.63
2023-08-02T02:14:55.568Z,3.65
2023-08-02T02:17:23.837Z,3.72
2023-08-02T02:19:50.785Z,4.40
2023-08-02T02:22:17.699Z,4.13
2023-08-02T02:24:46.403Z,4.00
2023-08-02T02:27:13.365Z,3.85
2023-08-02T02:29:41.036Z,4.07
2023-08-02T02:32:08.042Z,4.17
2023-08-02T02:34:34.998Z,3.97
2023-08-02T02:37:02.040Z,3.97
2023-08-02T02:39:28.932Z,3.78
2023-08-02T02:41:56.075Z,3.72
2023-08-02T02:44:23.155Z,4.10
2023-08-02T02:46:50.109Z,3.72
2023-08-02T02:49:17.052Z,3.88
2023-08-02T02:51:44.094Z,3.78
2023-08-02T02:54:12.195Z,3.75
2023-08-02T02:56:39.260Z,3.97
2023-08-02T02:59:06.241Z,3.88
2023-08-02T03:01:33.148Z,3.92
2023-08-02T03:04:00.046Z,4.25
2023-08-02T03:06:26.993Z,3.83
2023-08-02T03:08:53.933Z,3.87
2023-08-02T03:11:20.870Z,4.20
2023-08-02T03:13:47.802Z,3.78
2023-08-02T03:16:14.645Z,3.75
2023-08-02T03:18:41.464Z,3.80
2023-08-02T03:21:08.405Z,3.80
2023-08-02T03:23:36.280Z,3.80
2023-08-02T03:26:03.261Z,3.50
2023-08-02T03:28:30.291Z,3.30
2023-08-02T03:30:57.385Z,3.63
2023-08-02T03:33:24.315Z,3.47
2023-08-02T03:35:51.269Z,3.72
2023-08-02T03:38:18.375Z,3.30
2023-08-02T03:40:45.326Z,3.72
2023-08-02T03:43:12.374Z,3.50
2023-08-02T03:45:39.302Z,3.77
2023-08-02T03:48:06.489Z,3.80
2023-08-02T03:50:35.337Z,3.15
2023-08-02T03:53:02.279Z,4.00
2023-08-02T03:55:29.202Z,3.70
2023-08-02T03:57:56.208Z,3.37
2023-08-02T04:00:23.123Z,3.33
2023-08-02T04:02:50.202Z,3.50
2023-08-02T04:05:17.271Z,3.60
2023-08-02T04:07:44.700Z,3.58
2023-08-02T04:10:11.711Z,3.77
2023-08-02T04:12:38.780Z,3.78
2023-08-02T04:15:06.246Z,3.70
2023-08-02T04:17:33.215Z,3.90
2023-08-02T04:20:01.476Z,3.97
2023-08-02T04:22:31.554Z,3.93
2023-08-02T04:24:58.606Z,3.42
2023-08-02T04:27:25.523Z,3.47
2023-08-02T04:29:52.386Z,3.85
2023-08-02T04:32:19.294Z,3.85
2023-08-02T04:34:46.521Z,3.50
2023-08-02T04:37:13.510Z,3.10
2023-08-02T04:39:40.546Z,3.40
2023-08-02T04:42:07.475Z,3.10
2023-08-02T04:44:34.322Z,3.20
2023-08-02T04:47:01.400Z,3.33
2023-08-02T04:49:28.369Z,3.00
2023-08-02T04:51:55.335Z,3.58
2023-08-02T04:54:22.289Z,3.28
2023-08-02T04:56:49.247Z,3.45
2023-08-02T04:59:16.263Z,3.10
2023-08-02T05:01:43.735Z,3.70
2023-08-02T05:04:11.105Z,3.70
2023-08-02T05:06:38.113Z,3.50
2023-08-02T05:09:06.064Z,3.75
2023-08-02T05:11:33.129Z,3.30
2023-08-02T05:14:00.066Z,3.65
2023-08-02T05:16:28.356Z,3.50
2023-08-02T05:18:55.552Z,3.72
2023-08-02T05:21:24.395Z,3.40
2023-08-02T05:23:52.330Z,3.30
2023-08-02T05:26:21.265Z,3.88
2023-08-02T05:28:48.196Z,4.10
2023-08-02T05:31:16.917Z,3.90
2023-08-02T05:33:44.799Z,3.65
2023-08-02T05:36:16.221Z,3.67
2023-08-02T05:38:43.522Z,3.53
2023-08-02T05:41:10.557Z,3.55
2023-08-02T05:43:37.505Z,3.58
2023-08-02T05:46:04.845Z,3.70
2023-08-02T05:48:31.838Z,3.80
2023-08-02T05:50:58.769Z,4.07
2023-08-02T05:53:25.845Z,4.05
2023-08-02T05:55:52.900Z,4.03
2023-08-02T05:58:19.866Z,4.00
2023-08-02T06:00:47.008Z,4.27
2023-08-02T06:03:14.069Z,4.13
2023-08-02T06:05:41.109Z,3.65
2023-08-02T06:08:08.263Z,3.97
2023-08-02T06:10:35.583Z,3.90
2023-08-02T06:13:02.479Z,3.67
2023-08-02T06:15:30.343Z,3.92
2023-08-02T06:17:57.470Z,3.75
2023-08-02T06:20:24.379Z,3.65
2023-08-02T06:22:51.343Z,3.65
2023-08-02T06:25:18.498Z,3.90
2023-08-02T06:27:45.524Z,4.00
2023-08-02T06:30:12.618Z,3.28
2023-08-02T06:32:39.642Z,3.78
2023-08-02T06:35:07.186Z,3.60
2023-08-02T06:37:34.291Z,3.30
2023-08-02T06:40:01.356Z,3.20
2023-08-02T06:42:28.410Z,3.28
2023-08-02T06:44:55.718Z,3.45
2023-08-02T06:47:22.857Z,3.47
2023-08-02T06:49:50.037Z,3.30
2023-08-02T06:52:18.241Z,3.35
2023-08-02T06:54:45.356Z,3.42
2023-08-02T06:57:12.731Z,3.10
2023-08-02T06:59:39.883Z,3.45
2023-08-02T07:02:08.578Z,3.47
2023-08-02T07:04:35.619Z,3.33
2023-08-02T07:07:02.752Z,3.25
2023-08-02T07:09:31.290Z,3.42
2023-08-02T07:11:58.432Z,3.28
2023-08-02T07:14:25.565Z,3.27
2023-08-02T07:16:52.599Z,3.30
2023-08-02T07:19:19.712Z,3.10
2023-08-02T07:21:47.000Z,3.42
2023-08-02T07:24:14.192Z,3.10
2023-08-02T07:26:41.198Z,3.00
2023-08-02T07:29:08.421Z,2.88
2023-08-02T07:31:36.530Z,3.28
2023-08-02T07:34:03.600Z,3.05
2023-08-02T07:36:30.814Z,2.65
2023-08-02T07:38:57.885Z,2.50
2023-08-02T07:41:24.975Z,2.90
2023-08-02T07:43:52.072Z,2.75
2023-08-02T07:46:23.792Z,2.70
2023-08-02T07:48:52.720Z,2.40
2023-08-02T07:51:20.249Z,2.60
2023-08-02T07:53:47.860Z,2.20
2023-08-02T07:56:14.916Z,2.17
2023-08-02T07:58:42.070Z,1.85
2023-08-02T08:01:10.552Z,2.20
2023-08-02T08:03:38.664Z,2.20
2023-08-02T08:06:16.766Z,1.70
2023-08-02T08:08:44.461Z,2.00
2023-08-02T08:11:11.834Z,1.65
2023-08-02T08:13:39.005Z,1.60
2023-08-02T08:16:06.207Z,1.50
2023-08-02T08:18:34.139Z,1.63
2023-08-02T08:21:06.046Z,1.60
2023-08-02T08:23:34.139Z,1.23
2023-08-02T08:26:01.247Z,1.42
2023-08-02T08:28:28.481Z,1.57
2023-08-02T08:31:02.611Z,1.60
2023-08-02T08:33:30.935Z,1.85
2023-08-02T08:35:58.264Z,1.60
2023-08-02T08:38:25.656Z,1.50
2023-08-02T08:40:54.126Z,1.60
2023-08-02T08:43:25.721Z,1.50
2023-08-02T08:45:54.020Z,1.55
2023-08-02T08:48:22.917Z,1.88
2023-08-02T08:50:51.864Z,1.98
2023-08-02T08:53:29.221Z,1.60
2023-08-02T08:55:56.996Z,1.90
2023-08-02T08:58:25.437Z,1.95
2023-08-02T09:00:55.405Z,2.30
2023-08-02T09:03:22.768Z,1.77
2023-08-02T09:05:51.032Z,2.50
2023-08-02T09:08:18.602Z,2.30
2023-08-02T09:10:45.714Z,2.60
2023-08-02T09:13:29.247Z,2.50
2023-08-02T09:16:05.136Z,2.60
2023-08-02T09:18:43.213Z,2.20
2023-08-02T09:21:16.484Z,2.08
2023-08-02T09:23:48.254Z,2.40
2023-08-02T09:26:19.994Z,2.30
2023-08-02T09:29:01.505Z,2.28
2023-08-02T09:31:30.101Z,2.10
2023-08-02T09:33:58.411Z,2.22
2023-08-02T09:36:31.083Z,2.28
2023-08-02T09:39:05.586Z,2.20
2023-08-02T09:41:52.485Z,2.28
2023-08-02T09:44:22.622Z,2.20
2023-08-02T09:46:49.908Z,2.13
2023-08-02T09:49:22.265Z,2.30
2023-08-02T09:51:49.475Z,2.15
2023-08-02T09:54:17.188Z,2.55
2023-08-02T09:56:44.840Z,2.60
2023-08-02T09:59:12.780Z,2.35
2023-08-02T10:01:40.649Z,2.80
2023-08-02T10:04:09.786Z,2.88
2023-08-02T10:06:51.588Z,2.90
2023-08-02T10:09:24.795Z,2.50
2023-08-02T10:11:52.026Z,2.60
2023-08-02T10:14:21.092Z,2.58
2023-08-02T10:16:48.155Z,2.20
2023-08-02T10:19:15.973Z,2.30
2023-08-02T10:21:44.520Z,2.20
2023-08-02T10:24:13.919Z,2.20
2023-08-02T10:26:42.431Z,2.00
2023-08-02T10:29:10.273Z,2.00
2023-08-02T10:31:37.606Z,2.05
2023-08-02T10:34:36.479Z,2.03
2023-08-02T10:37:04.668Z,1.80
2023-08-02T10:39:47.119Z,1.60
2023-08-02T10:42:18.963Z,1.55
2023-08-02T10:45:00.695Z,1.60
2023-08-02T10:47:35.395Z,1.60
2023-08-02T10:50:04.341Z,1.70
2023-08-02T10:52:40.052Z,1.50
2023-08-02T10:55:09.209Z,1.52
2023-08-02T10:57:37.130Z,1.50
2023-08-02T11:00:27.060Z,1.60
2023-08-02T11:02:54.752Z,1.60
2023-08-02T11:05:43.901Z,1.58
2023-08-02T11:08:12.287Z,1.50
2023-08-02T11:10:51.896Z,1.30
2023-08-02T11:13:19.659Z,1.90
2023-08-02T11:15:48.200Z,1.70
2023-08-02T11:18:30.744Z,1.60
2023-08-02T11:21:11.447Z,1.70
2023-08-02T11:23:39.485Z,1.83
2023-08-02T11:26:25.597Z,2.00
2023-08-02T11:28:54.057Z,2.17
2023-08-02T11:31:28.794Z,2.10
2023-08-02T11:33:55.972Z,2.05
2023-08-02T11:36:24.253Z,2.00
2023-08-02T11:38:51.412Z,1.80
2023-08-02T11:41:23.199Z,1.90
2023-08-02T11:43:50.906Z,1.77
2023-08-02T11:46:25.047Z,2.22
2023-08-02T11:48:52.335Z,1.70
2023-08-02T11:51:21.740Z,1.40
2023-08-02T11:53:48.680Z,1.77
2023-08-02T11:56:15.984Z,1.50
2023-08-02T11:58:44.234Z,1.77
2023-08-02T12:01:12.127Z,1.42
2023-08-02T12:03:39.341Z,1.40
2023-08-02T12:06:06.343Z,1.35
2023-08-02T12:08:33.518Z,1.48
2023-08-02T12:11:00.702Z,1.30
2023-08-02T12:13:27.599Z,1.30
2023-08-02T12:16:01.280Z,1.30
2023-08-02T12:18:28.823Z,1.25
2023-08-02T12:20:56.020Z,1.15
2023-08-02T12:23:32.091Z,1.30
2023-08-02T12:25:59.213Z,1.30
2023-08-02T12:28:26.323Z,1.30
2023-08-02T12:31:02.668Z,1.30
2023-08-02T12:33:30.078Z,1.40
2023-08-02T12:35:57.150Z,1.40
2023-08-02T12:38:30.156Z,1.40
2023-08-02T12:40:58.744Z,1.30
2023-08-02T12:43:26.873Z,1.40
2023-08-02T12:45:59.284Z,1.40
2023-08-02T12:48:26.752Z,1.40
2023-08-02T12:50:54.346Z,1.30
2023-08-02T12:53:21.678Z,1.50
2023-08-02T12:55:49.162Z,1.20
2023-08-02T12:58:16.774Z,1.30
2023-08-02T13:00:44.443Z,1.33
2023-08-02T13:03:12.242Z,1.55
2023-08-02T13:05:39.939Z,1.30
2023-08-02T13:08:11.606Z,1.77
2023-08-02T13:10:38.834Z,1.33
2023-08-02T13:13:05.909Z,1.40
2023-08-02T13:15:33.063Z,1.35
2023-08-02T13:18:00.468Z,1.30
2023-08-02T13:20:28.912Z,1.30
2023-08-02T13:22:56.635Z,1.20
2023-08-02T13:25:23.861Z,1.30
2023-08-02T13:27:51.011Z,1.20
2023-08-02T13:30:18.364Z,1.07
2023-08-02T13:32:45.682Z,1.20
2023-08-02T13:35:12.946Z,1.20
2023-08-02T13:37:41.444Z,1.10
2023-08-02T13:40:08.836Z,1.20
2023-08-02T13:42:36.964Z,1.40
2023-08-02T13:45:04.715Z,1.20
2023-08-02T13:47:31.907Z,1.10
2023-08-02T13:49:59.171Z,1.40
2023-08-02T13:52:26.356Z,1.70
2023-08-02T13:54:53.529Z,1.50
2023-08-02T13:57:20.622Z,1.38
2023-08-02T13:59:47.709Z,1.50
2023-08-02T14:02:14.754Z,1.70
2023-08-02T14:04:43.851Z,1.70
2023-08-02T14:07:12.499Z,1.70
2023-08-02T14:09:42.057Z,1.75
2023-08-02T14:12:16.650Z,1.60
2023-08-02T14:14:44.409Z,1.58
2023-08-02T14:17:11.557Z,1.48
2023-08-02T14:19:38.591Z,1.43
2023-08-02T14:22:06.187Z,2.00
2023-08-02T14:24:33.653Z,1.50
2023-08-02T14:27:00.640Z,1.50
2023-08-02T14:29:27.571Z,1.75
2023-08-02T14:31:54.601Z,1.40
2023-08-02T14:34:25.109Z,1.60
2023-08-02T14:36:52.463Z,1.75
2023-08-02T14:39:19.558Z,1.52
2023-08-02T14:41:46.506Z,1.80
2023-08-02T14:44:13.584Z,1.70
2023-08-02T14:46:42.087Z,1.40
2023-08-02T14:49:09.994Z,2.00
2023-08-02T14:51:37.079Z,1.73
2023-08-02T14:54:13.255Z,1.92
2023-08-02T14:56:42.084Z,1.93
2023-08-02T14:59:09.848Z,1.70
2023-08-02T15:01:36.952Z,2.05
2023-08-02T15:04:04.239Z,1.90
2023-08-02T15:06:31.253Z,1.70
2023-08-02T15:08:58.283Z,1.87
2023-08-02T15:11:25.398Z,2.00
2023-08-02T15:13:52.494Z,2.13
2023-08-02T15:16:19.636Z,2.15
2023-08-02T15:18:46.758Z,2.10
2023-08-02T15:21:13.800Z,1.60
2023-08-02T15:23:40.779Z,1.70
2023-08-02T15:26:09.002Z,1.90
2023-08-02T15:28:35.971Z,1.80
2023-08-02T15:31:03.039Z,1.80
2023-08-02T15:33:30.135Z,2.07
2023-08-02T15:35:58.524Z,2.00
2023-08-02T15:38:26.204Z,1.88
2023-08-02T15:40:56.396Z,2.03
2023-08-02T15:43:23.553Z,1.90
2023-08-02T15:45:50.689Z,1.80
2023-08-02T15:48:17.669Z,2.10
2023-08-02T15:50:44.734Z,1.75
2023-08-02T15:53:11.758Z,1.85
2023-08-02T15:55:39.331Z,1.95
2023-08-02T15:58:06.501Z,2.20
2023-08-02T16:00:36.104Z,1.70
2023-08-02T16:03:04.828Z,1.70
2023-08-02T16:05:31.876Z,1.60
2023-08-02T16:07:59.316Z,1.90
2023-08-02T16:10:26.694Z,1.87
2023-08-02T16:12:55.274Z,1.70
2023-08-02T16:15:22.495Z,1.83
2023-08-02T16:17:49.628Z,2.10
2023-08-02T16:20:16.733Z,2.00
2023-08-02T16:22:44.078Z,1.87
2023-08-02T16:25:11.201Z,2.17
2023-08-02T16:27:38.464Z,1.90
2023-08-02T16:30:06.123Z,2.10
2023-08-02T16:32:33.161Z,2.25
2023-08-02T16:35:00.214Z,2.07
2023-08-02T16:37:27.128Z,2.35
2023-08-02T16:39:54.185Z,1.80
2023-08-02T16:42:21.199Z,1.95
2023-08-02T16:44:48.288Z,1.75
2023-08-02T16:47:15.430Z,1.90
2023-08-02T16:49:42.415Z,2.28
2023-08-02T16:52:09.532Z,1.90
2023-08-02T16:54:36.493Z,1.60
2023-08-02T16:57:03.686Z,2.00
2023-08-02T16:59:30.755Z,2.03
2023-08-02T17:01:57.734Z,1.75
2023-08-02T17:04:24.864Z,1.75
2023-08-02T17:06:51.927Z,1.67
2023-08-02T17:09:18.902Z,1.58
2023-08-02T17:11:45.856Z,2.10
2023-08-02T17:14:12.769Z,1.40
2023-08-02T17:16:39.830Z,1.45
2023-08-02T17:19:06.828Z,1.80
2023-08-02T17:21:35.935Z,1.67
2023-08-02T17:24:03.558Z,1.53
2023-08-02T17:26:30.743Z,1.30
2023-08-02T17:28:57.700Z,2.00
2023-08-02T17:31:24.822Z,1.58
2023-08-02T17:33:52.182Z,1.70
2023-08-02T17:36:19.108Z,1.37
2023-08-02T17:38:45.971Z,1.50
2023-08-02T17:41:12.986Z,1.52
2023-08-02T17:43:39.894Z,1.40
2023-08-02T17:46:06.865Z,1.33
2023-08-02T17:48:33.957Z,1.53
2023-08-02T17:51:01.016Z,1.40
2023-08-02T17:53:30.425Z,1.60
2023-08-02T17:56:02.554Z,1.40
2023-08-02T17:58:30.143Z,1.80
2023-08-02T18:01:23.649Z,1.30
2023-08-02T18:03:52.239Z,1.70
2023-08-02T18:06:21.820Z,1.45
2023-08-02T18:08:50.058Z,1.85
2023-08-02T18:11:23.084Z,1.40
2023-08-02T18:13:50.557Z,1.30
2023-08-02T18:16:17.728Z,1.40
2023-08-02T18:18:44.851Z,1.50
2023-08-02T18:21:12.823Z,1.70
2023-08-02T18:23:40.149Z,1.95
2023-08-02T18:26:12.960Z,1.60
2023-08-02T18:28:39.976Z,1.40
2023-08-02T18:31:07.308Z,1.48
2023-08-02T18:33:34.624Z,1.55
2023-08-02T18:36:12.351Z,1.58
2023-08-02T18:38:40.962Z,1.50
2023-08-02T18:41:20.406Z,1.48
2023-08-02T18:43:48.348Z,1.85
2023-08-02T18:46:16.597Z,1.30
2023-08-02T18:48:47.261Z,1.40
2023-08-02T18:51:17.641Z,1.10
2023-08-02T18:53:49.558Z,1.25
2023-08-02T18:56:17.949Z,1.65
2023-08-02T18:58:46.339Z,1.60
2023-08-02T19:01:13.296Z,1.50
2023-08-02T19:03:41.043Z,1.63
2023-08-02T19:06:08.241Z,1.70
2023-08-02T19:08:36.594Z,1.70
2023-08-02T19:11:04.631Z,1.70
2023-08-02T19:13:33.099Z,1.40
2023-08-02T19:16:00.891Z,2.40
2023-08-02T19:18:28.699Z,1.95
2023-08-02T19:20:55.796Z,1.80
2023-08-02T19:23:22.854Z,1.90
2023-08-02T19:25:50.308Z,1.80
2023-08-02T19:28:24.561Z,1.67
2023-08-02T19:30:52.241Z,1.52
2023-08-02T19:33:19.596Z,1.70
2023-08-02T19:35:49.500Z,1.73
2023-08-02T19:38:21.886Z,1.70
2023-08-02T19:40:57.273Z,1.80
2023-08-02T19:43:25.331Z,1.50
2023-08-02T19:46:00.291Z,1.67
2023-08-02T19:48:27.744Z,1.70
2023-08-02T19:50:57.901Z,1.60
2023-08-02T19:53:25.450Z,1.50
2023-08-02T19:55:52.585Z,1.83
2023-08-02T19:58:20.129Z,1.30
2023-08-02T20:00:54.203Z,1.50
2023-08-02T20:03:28.683Z,1.63
2023-08-02T20:06:00.490Z,1.97
2023-08-02T20:08:31.172Z,1.52
2023-08-02T20:11:00.553Z,1.75
2023-08-02T20:13:31.717Z,1.50
2023-08-02T20:16:00.848Z,1.60
2023-08-02T20:18:27.939Z,1.70
2023-08-02T20:20:57.412Z,1.60
2023-08-02T20:23:26.037Z,1.50
2023-08-02T20:25:54.774Z,1.60
2023-08-02T20:28:22.163Z,1.67
2023-08-02T20:30:52.576Z,1.70
2023-08-02T20:33:22.513Z,1.50
2023-08-02T20:35:49.597Z,1.40
2023-08-02T20:38:18.045Z,1.40
2023-08-02T20:40:45.613Z,1.58
2023-08-02T20:43:14.483Z,1.43
2023-08-02T20:45:46.615Z,1.63
2023-08-02T20:48:15.588Z,1.50
2023-08-02T20:50:48.536Z,1.50
2023-08-02T20:53:17.452Z,1.60
2023-08-02T20:55:45.296Z,1.30
2023-08-02T20:58:23.892Z,1.50
2023-08-02T21:00:57.780Z,1.50
2023-08-02T21:03:25.458Z,1.38
2023-08-02T21:05:52.478Z,1.70
2023-08-02T21:08:19.563Z,1.60
2023-08-02T21:10:46.510Z,1.85
2023-08-02T21:13:13.579Z,1.73
2023-08-02T21:15:46.890Z,1.40
2023-08-02T21:18:14.131Z,1.50
2023-08-02T21:20:42.316Z,1.40
2023-08-02T21:23:19.001Z,1.40
2023-08-02T21:25:51.190Z,1.50
2023-08-02T21:28:23.432Z,1.60
2023-08-02T21:30:52.329Z,1.60
2023-08-02T21:33:20.895Z,1.47
2023-08-02T21:35:53.063Z,2.10
2023-08-02T21:38:25.119Z,1.90
2023-08-02T21:40:57.489Z,1.45
2023-08-02T21:43:26.352Z,1.67
2023-08-02T21:45:57.032Z,1.80
2023-08-02T21:48:24.644Z,1.73
2023-08-02T21:50:51.637Z,1.58
2023-08-02T21:53:23.540Z,1.80
2023-08-02T21:55:53.963Z,1.73
2023-08-02T21:58:36.087Z,1.50
2023-08-02T22:01:04.669Z,1.63
2023-08-02T22:03:31.772Z,1.50
2023-08-02T22:06:03.658Z,1.80
2023-08-02T22:08:39.968Z,2.22
2023-08-02T22:11:09.132Z,1.60
2023-08-02T22:13:38.172Z,1.60
2023-08-02T22:16:09.428Z,1.70
2023-08-02T22:18:36.541Z,1.70
2023-08-02T22:21:04.472Z,1.48
2023-08-02T22:23:32.964Z,1.50
2023-08-02T22:26:00.165Z,1.50
2023-08-02T22:28:27.019Z,1.70
2023-08-02T22:30:54.066Z,1.70
2023-08-02T22:33:20.934Z,1.73
2023-08-02T22:35:48.053Z,1.70
2023-08-02T22:38:15.525Z,1.60
2023-08-02T22:40:42.613Z,1.98
2023-08-02T22:43:09.817Z,1.55
2023-08-02T22:45:36.880Z,2.17
2023-08-02T22:53:06.111Z,2.08
2023-08-02T22:55:33.136Z,2.10
2023-08-02T22:58:00.093Z,2.00
2023-08-02T23:00:28.961Z,2.07
2023-08-02T23:02:56.988Z,2.40
2023-08-02T23:05:23.905Z,2.20
2023-08-02T23:07:51.852Z,2.20
2023-08-02T23:10:27.966Z,2.10
2023-08-02T23:13:00.459Z,2.30
2023-08-02T23:15:27.823Z,2.30
2023-08-02T23:18:20.281Z,1.80
2023-08-02T23:20:49.251Z,2.38
2023-08-02T23:23:31.197Z,2.20
2023-08-02T23:26:11.803Z,2.50
2023-08-02T23:28:53.611Z,2.17
2023-08-02T23:31:26.154Z,2.38
2023-08-02T23:33:54.561Z,2.53
2023-08-02T23:36:21.928Z,2.55
2023-08-02T23:38:49.242Z,2.27
2023-08-02T23:41:16.785Z,2.70
2023-08-02T23:43:43.717Z,2.60
2023-08-02T23:46:10.605Z,2.55
2023-08-02T23:48:37.748Z,2.50
2023-08-02T23:51:04.667Z,2.73
2023-08-02T23:53:31.686Z,2.67
2023-08-02T23:55:58.641Z,2.80
2023-08-02T23:58:25.588Z,2.70
